Terminal Aerodrome Forecast
Issued by NWS

Home | Current Version | Previous Version | Text Only | Print | Product List | Glossary On
Versions: 1 2 3 4 5 6 7 8 9 10 11 12 13 14 15 16 17 18
670
FTUS46 KLOX 242337
TAFBUR
TAF
KBUR 242337Z 2500/2524 15008KT P6SM SKC
     FM250300 VRB05KT P6SM SKC
     FM251300 04006KT P6SM SKC WS010/06025KT
     FM252000 12010KT P6SM SKC=

USA.gov is the U.S. government's official web portal to all federal, state and local government web resources and services.